Аэропорт: Кривой Рог. Кривой Рог

ICAO: UKDR

METAR:
2019/05/26 14:00
UKDR 261400Z 32007MPS CAVOK 23/12 Q1010 R36/09//70 NOSIG
METAR:
2019/05/26 12:00
TAF UKDR 261102Z 2612/2712 30005MPS 9999 SCT030CB TX27/2712Z TN15/2702Z 
      TEMPO 2612/2617 32007G12MPS 2500 -TSRA BKN020CB 
      BECMG 2617/2619 VRB01MPS CAVOK 
      TEMPO 2708/2712 25005MPS SCT030CB